To NAV CANADA Home Page Login to a new session Search on AWWS site Feedback and Comments Disclaimer Vers la page française équivalente Tips FAQ What's new on the site To the Forecasts and Observations / NOTAM section To "File a Flight Plan" website Publications and other links Update of the User's profile FIC Telephone Numbers My Weather Data Folder Route Weather Data Regional Weather Data Local Weather Data To the Forecasts and Observations / NOTAM section
Request Generated 09/27/2016 at 10:20:22 UTC . Weather information available at that time is displayed.

METAR/TAF

STEPHENVILLE/NL    

METAR CYJT 271000Z CCA 28006KT 10SM -RA BKN020 OVC070 07/05 A2977 RMK
SC7AC1 SLP082=
METAR CYJT 271000Z 28006KT 15SM -RA BKN020 OVC070 07/05 A2977 RMK
SC7AC1 SLP082=
METAR CYJT 270900Z 30005KT 12SM -RA OVC020 07/06 A2975 RMK SC8
SLP077=
METAR CYJT 270800Z VRB02KT 12SM -RA OVC021 07/05 A2974 RMK SC8
SLP074=

TAF CYJT 270540Z 2706/2806 VRB03KT P6SM -SHRA OVC025 TEMPO 2706/2715
5SM -SHRA BR OVC020 PROB30 2708/2711 2SM -SHRA BR BKN008 OVC020
FM271500 31012KT P6SM BKN030 TEMPO 2715/2724 SCT030
BECMG 2721/2723 05010KT
FM280000 05010KT P6SM FEW030
RMK NXT FCST BY 271200Z=
Your time UTC time
Weather data provided by Environment Canada and NAV CANADA